sensor_id;sensor_type;location;lat;lon;timestamp;temperature;humidity
71514;DHT22;59335;46.652;21.272;2023-05-07T00:02:06;22.84;44.64
71514;DHT22;59335;46.652;21.272;2023-05-07T00:05:09;22.85;44.56
71514;DHT22;59335;46.652;21.272;2023-05-07T00:08:13;22.84;44.60
71514;DHT22;59335;46.652;21.272;2023-05-07T00:11:15;22.82;44.56
71514;DHT22;59335;46.652;21.272;2023-05-07T00:14:18;22.85;44.60
71514;DHT22;59335;46.652;21.272;2023-05-07T00:17:21;22.84;44.57
71514;DHT22;59335;46.652;21.272;2023-05-07T00:20:23;22.81;44.60
71514;DHT22;59335;46.652;21.272;2023-05-07T00:23:26;22.87;44.55
71514;DHT22;59335;46.652;21.272;2023-05-07T00:26:29;22.85;44.56
71514;DHT22;59335;46.652;21.272;2023-05-07T00:29:32;22.84;44.55
71514;DHT22;59335;46.652;21.272;2023-05-07T00:32:35;22.82;44.56
71514;DHT22;59335;46.652;21.272;2023-05-07T00:35:39;22.85;44.55
71514;DHT22;59335;46.652;21.272;2023-05-07T00:38:41;22.82;44.50
71514;DHT22;59335;46.652;21.272;2023-05-07T00:41:44;22.82;44.52
71514;DHT22;59335;46.652;21.272;2023-05-07T00:44:47;22.85;44.48
71514;DHT22;59335;46.652;21.272;2023-05-07T00:47:49;22.84;44.51
71514;DHT22;59335;46.652;21.272;2023-05-07T00:50:53;22.81;44.60
71514;DHT22;59335;46.652;21.272;2023-05-07T00:53:56;22.82;44.56
71514;DHT22;59335;46.652;21.272;2023-05-07T00:56:59;22.78;44.56
71514;DHT22;59335;46.652;21.272;2023-05-07T01:00:03;22.81;44.56
71514;DHT22;59335;46.652;21.272;2023-05-07T01:03:07;22.81;44.53
71514;DHT22;59335;46.652;21.272;2023-05-07T01:06:10;22.82;44.55
71514;DHT22;59335;46.652;21.272;2023-05-07T01:09:16;22.82;44.55
71514;DHT22;59335;46.652;21.272;2023-05-07T01:12:19;22.81;44.56
71514;DHT22;59335;46.652;21.272;2023-05-07T01:15:22;22.84;44.51
71514;DHT22;59335;46.652;21.272;2023-05-07T01:18:25;22.81;44.52
71514;DHT22;59335;46.652;21.272;2023-05-07T01:21:32;22.84;44.43
71514;DHT22;59335;46.652;21.272;2023-05-07T01:24:38;22.81;44.53
71514;DHT22;59335;46.652;21.272;2023-05-07T01:27:42;22.81;44.48
71514;DHT22;59335;46.652;21.272;2023-05-07T01:30:52;22.81;44.55
71514;DHT22;59335;46.652;21.272;2023-05-07T01:33:56;22.81;44.48
71514;DHT22;59335;46.652;21.272;2023-05-07T01:37:02;22.82;44.56
71514;DHT22;59335;46.652;21.272;2023-05-07T01:40:08;22.79;44.48
71514;DHT22;59335;46.652;21.272;2023-05-07T01:43:12;22.78;44.49
71514;DHT22;59335;46.652;21.272;2023-05-07T01:46:15;22.79;44.53
71514;DHT22;59335;46.652;21.272;2023-05-07T01:49:19;22.79;44.52
71514;DHT22;59335;46.652;21.272;2023-05-07T01:52:22;22.76;44.52
71514;DHT22;59335;46.652;21.272;2023-05-07T01:55:25;22.79;44.50
71514;DHT22;59335;46.652;21.272;2023-05-07T01:58:28;22.79;44.45
71514;DHT22;59335;46.652;21.272;2023-05-07T02:01:30;22.79;44.41
71514;DHT22;59335;46.652;21.272;2023-05-07T02:04:33;22.79;44.48
71514;DHT22;59335;46.652;21.272;2023-05-07T02:07:37;22.79;44.47
71514;DHT22;59335;46.652;21.272;2023-05-07T02:10:40;22.78;44.44
71514;DHT22;59335;46.652;21.272;2023-05-07T02:13:43;22.79;44.44
71514;DHT22;59335;46.652;21.272;2023-05-07T02:16:46;22.75;44.53
71514;DHT22;59335;46.652;21.272;2023-05-07T02:19:50;22.79;44.46
71514;DHT22;59335;46.652;21.272;2023-05-07T02:22:52;22.79;44.46
71514;DHT22;59335;46.652;21.272;2023-05-07T02:25:55;22.76;44.48
71514;DHT22;59335;46.652;21.272;2023-05-07T02:28:58;22.79;44.48
71514;DHT22;59335;46.652;21.272;2023-05-07T02:32:00;22.78;44.48
71514;DHT22;59335;46.652;21.272;2023-05-07T02:35:05;22.76;44.50
71514;DHT22;59335;46.652;21.272;2023-05-07T02:38:08;22.78;44.44
71514;DHT22;59335;46.652;21.272;2023-05-07T02:41:14;22.78;44.45
71514;DHT22;59335;46.652;21.272;2023-05-07T02:44:16;22.76;44.48
71514;DHT22;59335;46.652;21.272;2023-05-07T02:47:23;22.76;44.47
71514;DHT22;59335;46.652;21.272;2023-05-07T02:50:26;22.75;44.44
71514;DHT22;59335;46.652;21.272;2023-05-07T02:53:30;22.76;44.49
71514;DHT22;59335;46.652;21.272;2023-05-07T02:56:32;22.75;44.46
71514;DHT22;59335;46.652;21.272;2023-05-07T02:59:35;22.75;44.44
71514;DHT22;59335;46.652;21.272;2023-05-07T03:02:38;22.75;44.49
71514;DHT22;59335;46.652;21.272;2023-05-07T03:05:41;22.74;44.50
71514;DHT22;59335;46.652;21.272;2023-05-07T03:08:44;22.75;44.45
71514;DHT22;59335;46.652;21.272;2023-05-07T03:11:47;22.75;44.47
71514;DHT22;59335;46.652;21.272;2023-05-07T03:14:50;22.78;44.47
71514;DHT22;59335;46.652;21.272;2023-05-07T03:17:53;22.76;44.45
71514;DHT22;59335;46.652;21.272;2023-05-07T03:20:56;22.74;44.49
71514;DHT22;59335;46.652;21.272;2023-05-07T03:24:00;22.74;44.51
71514;DHT22;59335;46.652;21.272;2023-05-07T03:27:02;22.75;44.50
71514;DHT22;59335;46.652;21.272;2023-05-07T03:30:06;22.76;44.54
71514;DHT22;59335;46.652;21.272;2023-05-07T03:33:10;22.76;44.50
71514;DHT22;59335;46.652;21.272;2023-05-07T03:36:13;22.75;44.50
71514;DHT22;59335;46.652;21.272;2023-05-07T03:39:15;22.74;44.53
71514;DHT22;59335;46.652;21.272;2023-05-07T03:42:18;22.75;44.58
71514;DHT22;59335;46.652;21.272;2023-05-07T03:45:24;22.75;44.53
71514;DHT22;59335;46.652;21.272;2023-05-07T03:48:34;22.74;44.54
71514;DHT22;59335;46.652;21.272;2023-05-07T03:51:38;22.74;44.54
71514;DHT22;59335;46.652;21.272;2023-05-07T03:54:42;22.75;44.50
71514;DHT22;59335;46.652;21.272;2023-05-07T03:57:47;22.75;44.54
71514;DHT22;59335;46.652;21.272;2023-05-07T04:00:50;22.74;44.54
71514;DHT22;59335;46.652;21.272;2023-05-07T04:03:58;22.74;44.56
71514;DHT22;59335;46.652;21.272;2023-05-07T04:07:01;22.74;44.55
71514;DHT22;59335;46.652;21.272;2023-05-07T04:10:08;22.75;44.54
71514;DHT22;59335;46.652;21.272;2023-05-07T04:13:13;22.75;44.54
71514;DHT22;59335;46.652;21.272;2023-05-07T04:16:17;22.74;44.56
71514;DHT22;59335;46.652;21.272;2023-05-07T04:19:20;22.76;44.57
71514;DHT22;59335;46.652;21.272;2023-05-07T04:22:26;22.71;44.68
71514;DHT22;59335;46.652;21.272;2023-05-07T04:25:29;22.74;44.68
71514;DHT22;59335;46.652;21.272;2023-05-07T04:28:41;22.71;44.68
71514;DHT22;59335;46.652;21.272;2023-05-07T04:31:44;22.72;44.73
71514;DHT22;59335;46.652;21.272;2023-05-07T04:34:47;22.72;44.69
71514;DHT22;59335;46.652;21.272;2023-05-07T04:37:50;22.72;44.69
71514;DHT22;59335;46.652;21.272;2023-05-07T04:40:53;22.72;44.78
71514;DHT22;59335;46.652;21.272;2023-05-07T04:43:59;22.71;44.72
71514;DHT22;59335;46.652;21.272;2023-05-07T04:47:05;22.72;44.81
71514;DHT22;59335;46.652;21.272;2023-05-07T04:50:08;22.71;44.82
71514;DHT22;59335;46.652;21.272;2023-05-07T04:53:13;22.75;44.77
71514;DHT22;59335;46.652;21.272;2023-05-07T04:56:16;22.71;44.78
71514;DHT22;59335;46.652;21.272;2023-05-07T04:59:20;22.71;44.84
71514;DHT22;59335;46.652;21.272;2023-05-07T05:02:25;22.71;44.88
71514;DHT22;59335;46.652;21.272;2023-05-07T05:05:27;22.68;44.96
71514;DHT22;59335;46.652;21.272;2023-05-07T05:08:30;22.71;44.92
71514;DHT22;59335;46.652;21.272;2023-05-07T05:11:35;22.71;44.92
71514;DHT22;59335;46.652;21.272;2023-05-07T05:14:38;22.71;44.93
71514;DHT22;59335;46.652;21.272;2023-05-07T05:17:42;22.64;44.99
71514;DHT22;59335;46.652;21.272;2023-05-07T05:20:45;22.68;45.01
71514;DHT22;59335;46.652;21.272;2023-05-07T05:23:48;22.68;44.89
71514;DHT22;59335;46.652;21.272;2023-05-07T05:26:55;22.72;44.89
71514;DHT22;59335;46.652;21.272;2023-05-07T05:29:58;22.69;44.87
71514;DHT22;59335;46.652;21.272;2023-05-07T05:33:02;22.69;44.90
71514;DHT22;59335;46.652;21.272;2023-05-07T05:36:06;22.75;44.80
71514;DHT22;59335;46.652;21.272;2023-05-07T05:39:10;22.72;44.96
71514;DHT22;59335;46.652;21.272;2023-05-07T05:42:12;22.71;44.92
71514;DHT22;59335;46.652;21.272;2023-05-07T05:45:15;22.71;44.96
71514;DHT22;59335;46.652;21.272;2023-05-07T05:48:19;22.72;44.93
71514;DHT22;59335;46.652;21.272;2023-05-07T05:51:23;22.72;44.90
71514;DHT22;59335;46.652;21.272;2023-05-07T05:54:27;22.71;44.92
71514;DHT22;59335;46.652;21.272;2023-05-07T05:57:30;22.68;44.96
71514;DHT22;59335;46.652;21.272;2023-05-07T06:00:33;22.72;44.92
71514;DHT22;59335;46.652;21.272;2023-05-07T06:03:39;22.71;44.88
71514;DHT22;59335;46.652;21.272;2023-05-07T06:06:47;22.71;44.97
71514;DHT22;59335;46.652;21.272;2023-05-07T06:09:50;22.71;45.00
71514;DHT22;59335;46.652;21.272;2023-05-07T06:12:53;22.74;44.95
71514;DHT22;59335;46.652;21.272;2023-05-07T06:15:56;22.74;44.91
71514;DHT22;59335;46.652;21.272;2023-05-07T06:18:59;22.72;44.90
71514;DHT22;59335;46.652;21.272;2023-05-07T06:22:02;22.72;44.87
71514;DHT22;59335;46.652;21.272;2023-05-07T06:25:09;22.72;44.87
71514;DHT22;59335;46.652;21.272;2023-05-07T06:28:12;22.71;44.87
71514;DHT22;59335;46.652;21.272;2023-05-07T06:31:18;22.75;44.87
71514;DHT22;59335;46.652;21.272;2023-05-07T06:34:36;22.74;44.87
71514;DHT22;59335;46.652;21.272;2023-05-07T06:37:40;22.74;44.86
71514;DHT22;59335;46.652;21.272;2023-05-07T06:40:50;22.75;44.88
71514;DHT22;59335;46.652;21.272;2023-05-07T06:43:53;22.75;44.86
71514;DHT22;59335;46.652;21.272;2023-05-07T06:47:18;22.79;44.83
71514;DHT22;59335;46.652;21.272;2023-05-07T06:50:25;22.82;44.79
71514;DHT22;59335;46.652;21.272;2023-05-07T06:53:31;22.79;44.76
71514;DHT22;59335;46.652;21.272;2023-05-07T06:56:36;22.81;44.75
71514;DHT22;59335;46.652;21.272;2023-05-07T06:59:40;22.82;44.77
71514;DHT22;59335;46.652;21.272;2023-05-07T07:02:43;22.82;44.77
71514;DHT22;59335;46.652;21.272;2023-05-07T07:05:47;22.82;44.72
71514;DHT22;59335;46.652;21.272;2023-05-07T07:08:49;22.85;44.64
71514;DHT22;59335;46.652;21.272;2023-05-07T07:11:53;22.85;44.63
71514;DHT22;59335;46.652;21.272;2023-05-07T07:14:56;22.87;44.62
71514;DHT22;59335;46.652;21.272;2023-05-07T07:17:59;22.90;44.50
71514;DHT22;59335;46.652;21.272;2023-05-07T07:21:02;22.94;44.47
71514;DHT22;59335;46.652;21.272;2023-05-07T07:24:05;22.96;44.34
71514;DHT22;59335;46.652;21.272;2023-05-07T07:27:08;23.02;44.22
71514;DHT22;59335;46.652;21.272;2023-05-07T07:30:11;23.06;44.14
71514;DHT22;59335;46.652;21.272;2023-05-07T07:33:16;23.06;44.16
71514;DHT22;59335;46.652;21.272;2023-05-07T07:36:19;23.15;44.13
71514;DHT22;59335;46.652;21.272;2023-05-07T07:39:24;23.16;44.01
71514;DHT22;59335;46.652;21.272;2023-05-07T07:42:30;23.20;44.00
71514;DHT22;59335;46.652;21.272;2023-05-07T07:45:33;23.24;43.93
71514;DHT22;59335;46.652;21.272;2023-05-07T07:48:37;23.29;43.87
71514;DHT22;59335;46.652;21.272;2023-05-07T07:51:40;23.29;43.84
71514;DHT22;59335;46.652;21.272;2023-05-07T07:54:45;23.30;43.79
71514;DHT22;59335;46.652;21.272;2023-05-07T07:57:49;23.32;43.76
71514;DHT22;59335;46.652;21.272;2023-05-07T08:00:52;23.29;43.78
71514;DHT22;59335;46.652;21.272;2023-05-07T08:03:59;23.27;43.79
71514;DHT22;59335;46.652;21.272;2023-05-07T08:07:04;23.29;43.83
71514;DHT22;59335;46.652;21.272;2023-05-07T08:10:09;23.27;43.82
71514;DHT22;59335;46.652;21.272;2023-05-07T08:13:13;23.26;43.89
71514;DHT22;59335;46.652;21.272;2023-05-07T08:16:17;23.26;43.88
71514;DHT22;59335;46.652;21.272;2023-05-07T08:19:20;23.24;43.88
71514;DHT22;59335;46.652;21.272;2023-05-07T08:22:24;23.24;43.89
71514;DHT22;59335;46.652;21.272;2023-05-07T08:25:27;23.26;43.85
71514;DHT22;59335;46.652;21.272;2023-05-07T08:28:31;23.26;43.89
71514;DHT22;59335;46.652;21.272;2023-05-07T08:31:33;23.26;43.87
71514;DHT22;59335;46.652;21.272;2023-05-07T08:34:36;23.27;43.87
71514;DHT22;59335;46.652;21.272;2023-05-07T08:37:40;23.29;43.92
71514;DHT22;59335;46.652;21.272;2023-05-07T08:40:44;23.29;43.92
71514;DHT22;59335;46.652;21.272;2023-05-07T08:43:53;23.29;43.93
71514;DHT22;59335;46.652;21.272;2023-05-07T08:47:01;23.26;43.89
71514;DHT22;59335;46.652;21.272;2023-05-07T08:50:06;23.24;43.93
71514;DHT22;59335;46.652;21.272;2023-05-07T08:53:09;23.23;43.91
71514;DHT22;59335;46.652;21.272;2023-05-07T08:56:14;23.24;43.90
71514;DHT22;59335;46.652;21.272;2023-05-07T08:59:17;23.22;43.93
71514;DHT22;59335;46.652;21.272;2023-05-07T09:02:20;23.24;43.90
71514;DHT22;59335;46.652;21.272;2023-05-07T09:05:24;23.23;43.92
71514;DHT22;59335;46.652;21.272;2023-05-07T09:08:27;23.23;43.94
71514;DHT22;59335;46.652;21.272;2023-05-07T09:11:33;23.26;43.93
71514;DHT22;59335;46.652;21.272;2023-05-07T09:14:38;23.23;43.97
71514;DHT22;59335;46.652;21.272;2023-05-07T09:17:41;23.24;43.96
71514;DHT22;59335;46.652;21.272;2023-05-07T09:20:45;23.24;43.96
71514;DHT22;59335;46.652;21.272;2023-05-07T09:23:54;23.27;43.96
71514;DHT22;59335;46.652;21.272;2023-05-07T09:27:01;23.24;43.99
71514;DHT22;59335;46.652;21.272;2023-05-07T09:30:09;23.26;43.98
71514;DHT22;59335;46.652;21.272;2023-05-07T09:33:12;23.23;43.99
71514;DHT22;59335;46.652;21.272;2023-05-07T09:36:19;23.24;43.96
71514;DHT22;59335;46.652;21.272;2023-05-07T09:39:23;23.22;43.98
71514;DHT22;59335;46.652;21.272;2023-05-07T09:42:26;23.23;43.97
71514;DHT22;59335;46.652;21.272;2023-05-07T09:45:32;23.24;43.95
71514;DHT22;59335;46.652;21.272;2023-05-07T09:48:37;23.26;43.99
71514;DHT22;59335;46.652;21.272;2023-05-07T09:51:47;23.26;43.95
71514;DHT22;59335;46.652;21.272;2023-05-07T09:54:52;23.26;43.98
71514;DHT22;59335;46.652;21.272;2023-05-07T09:57:58;23.24;43.98
71514;DHT22;59335;46.652;21.272;2023-05-07T10:01:03;23.23;43.97
71514;DHT22;59335;46.652;21.272;2023-05-07T10:04:07;23.24;43.96
71514;DHT22;59335;46.652;21.272;2023-05-07T10:07:11;23.26;43.96
71514;DHT22;59335;46.652;21.272;2023-05-07T10:10:14;23.26;43.94
71514;DHT22;59335;46.652;21.272;2023-05-07T10:13:21;23.24;43.99
71514;DHT22;59335;46.652;21.272;2023-05-07T10:16:33;23.23;43.93
71514;DHT22;59335;46.652;21.272;2023-05-07T10:19:44;23.26;43.93
71514;DHT22;59335;46.652;21.272;2023-05-07T10:22:48;23.23;43.97
71514;DHT22;59335;46.652;21.272;2023-05-07T10:25:58;23.26;43.93
71514;DHT22;59335;46.652;21.272;2023-05-07T10:29:15;23.23;44.00
71514;DHT22;59335;46.652;21.272;2023-05-07T10:32:37;23.26;43.96
71514;DHT22;59335;46.652;21.272;2023-05-07T10:35:46;23.26;43.93
71514;DHT22;59335;46.652;21.272;2023-05-07T10:38:50;23.24;43.98
71514;DHT22;59335;46.652;21.272;2023-05-07T10:41:53;23.24;43.97
71514;DHT22;59335;46.652;21.272;2023-05-07T10:45:11;23.24;43.96
71514;DHT22;59335;46.652;21.272;2023-05-07T10:48:16;23.23;43.96
71514;DHT22;59335;46.652;21.272;2023-05-07T10:51:30;23.26;43.93
71514;DHT22;59335;46.652;21.272;2023-05-07T10:54:42;23.26;43.98
71514;DHT22;59335;46.652;21.272;2023-05-07T10:57:48;23.24;44.00
71514;DHT22;59335;46.652;21.272;2023-05-07T11:00:59;23.26;44.01
71514;DHT22;59335;46.652;21.272;2023-05-07T11:04:15;23.26;43.93
71514;DHT22;59335;46.652;21.272;2023-05-07T11:07:54;23.23;43.94
71514;DHT22;59335;46.652;21.272;2023-05-07T11:11:00;23.24;43.96
71514;DHT22;59335;46.652;21.272;2023-05-07T11:18:07;23.26;43.96
71514;DHT22;59335;46.652;21.272;2023-05-07T11:21:32;23.26;43.97
71514;DHT22;59335;46.652;21.272;2023-05-07T11:24:42;23.22;44.02
71514;DHT22;59335;46.652;21.272;2023-05-07T11:27:47;23.24;44.03
71514;DHT22;59335;46.652;21.272;2023-05-07T11:30:51;23.24;43.99
71514;DHT22;59335;46.652;21.272;2023-05-07T11:33:55;23.22;44.01
71514;DHT22;59335;46.652;21.272;2023-05-07T11:37:00;23.24;44.02
71514;DHT22;59335;46.652;21.272;2023-05-07T11:40:20;23.24;43.96
71514;DHT22;59335;46.652;21.272;2023-05-07T11:43:23;23.22;43.98
71514;DHT22;59335;46.652;21.272;2023-05-07T11:46:27;23.22;43.98
71514;DHT22;59335;46.652;21.272;2023-05-07T11:49:30;23.24;43.95
71514;DHT22;59335;46.652;21.272;2023-05-07T11:52:33;23.23;43.98
71514;DHT22;59335;46.652;21.272;2023-05-07T11:55:36;23.23;44.00
71514;DHT22;59335;46.652;21.272;2023-05-07T11:58:40;23.23;44.01
71514;DHT22;59335;46.652;21.272;2023-05-07T12:01:46;23.24;43.98
71514;DHT22;59335;46.652;21.272;2023-05-07T12:04:50;23.22;43.95
71514;DHT22;59335;46.652;21.272;2023-05-07T12:07:57;23.23;44.00
71514;DHT22;59335;46.652;21.272;2023-05-07T12:11:00;23.22;44.02
71514;DHT22;59335;46.652;21.272;2023-05-07T12:14:03;23.20;43.96
71514;DHT22;59335;46.652;21.272;2023-05-07T12:17:07;23.20;44.03
71514;DHT22;59335;46.652;21.272;2023-05-07T12:20:10;23.20;44.03
71514;DHT22;59335;46.652;21.272;2023-05-07T12:23:14;23.20;43.99
71514;DHT22;59335;46.652;21.272;2023-05-07T12:26:19;23.23;43.97
71514;DHT22;59335;46.652;21.272;2023-05-07T12:29:25;23.20;44.02
71514;DHT22;59335;46.652;21.272;2023-05-07T12:32:28;23.19;43.99
71514;DHT22;59335;46.652;21.272;2023-05-07T12:35:35;23.22;44.03
71514;DHT22;59335;46.652;21.272;2023-05-07T12:38:39;23.22;44.00
71514;DHT22;59335;46.652;21.272;2023-05-07T12:41:56;23.20;44.00
71514;DHT22;59335;46.652;21.272;2023-05-07T12:45:15;23.20;43.99
71514;DHT22;59335;46.652;21.272;2023-05-07T12:48:20;23.19;44.02
71514;DHT22;59335;46.652;21.272;2023-05-07T12:51:22;23.16;43.99
71514;DHT22;59335;46.652;21.272;2023-05-07T12:54:31;23.22;44.03
71514;DHT22;59335;46.652;21.272;2023-05-07T12:57:38;23.18;43.99
71514;DHT22;59335;46.652;21.272;2023-05-07T13:00:42;23.20;44.00
71514;DHT22;59335;46.652;21.272;2023-05-07T13:03:48;23.19;44.05
71514;DHT22;59335;46.652;21.272;2023-05-07T13:06:53;23.20;44.01
71514;DHT22;59335;46.652;21.272;2023-05-07T13:09:56;23.19;43.98
71514;DHT22;59335;46.652;21.272;2023-05-07T13:12:58;23.19;43.98
71514;DHT22;59335;46.652;21.272;2023-05-07T13:16:02;23.18;43.96
71514;DHT22;59335;46.652;21.272;2023-05-07T13:19:06;23.19;43.99
71514;DHT22;59335;46.652;21.272;2023-05-07T13:22:09;23.19;43.99
71514;DHT22;59335;46.652;21.272;2023-05-07T13:25:12;23.19;44.00
71514;DHT22;59335;46.652;21.272;2023-05-07T13:28:15;23.20;43.97
71514;DHT22;59335;46.652;21.272;2023-05-07T13:31:18;23.22;43.99
71514;DHT22;59335;46.652;21.272;2023-05-07T13:34:23;23.18;43.96
71514;DHT22;59335;46.652;21.272;2023-05-07T13:37:26;23.20;43.97
71514;DHT22;59335;46.652;21.272;2023-05-07T13:40:28;23.18;43.98
71514;DHT22;59335;46.652;21.272;2023-05-07T13:43:31;23.19;44.00
71514;DHT22;59335;46.652;21.272;2023-05-07T13:46:35;23.20;43.97
71514;DHT22;59335;46.652;21.272;2023-05-07T13:49:38;23.19;43.96
71514;DHT22;59335;46.652;21.272;2023-05-07T13:52:42;23.20;43.96
71514;DHT22;59335;46.652;21.272;2023-05-07T13:55:48;23.19;44.00
71514;DHT22;59335;46.652;21.272;2023-05-07T13:58:51;23.20;44.00
71514;DHT22;59335;46.652;21.272;2023-05-07T14:02:01;23.20;44.00
71514;DHT22;59335;46.652;21.272;2023-05-07T14:05:04;23.20;44.01
71514;DHT22;59335;46.652;21.272;2023-05-07T14:08:07;23.22;43.98
71514;DHT22;59335;46.652;21.272;2023-05-07T14:11:10;23.19;44.03
71514;DHT22;59335;46.652;21.272;2023-05-07T14:14:13;23.19;44.00
71514;DHT22;59335;46.652;21.272;2023-05-07T14:17:18;23.20;44.01
71514;DHT22;59335;46.652;21.272;2023-05-07T14:20:21;23.19;43.96
71514;DHT22;59335;46.652;21.272;2023-05-07T14:23:24;23.20;44.00
71514;DHT22;59335;46.652;21.272;2023-05-07T14:26:28;23.20;44.00
71514;DHT22;59335;46.652;21.272;2023-05-07T14:29:31;23.20;44.00
71514;DHT22;59335;46.652;21.272;2023-05-07T14:32:45;23.19;44.02
71514;DHT22;59335;46.652;21.272;2023-05-07T14:35:48;23.19;44.01
71514;DHT22;59335;46.652;21.272;2023-05-07T14:38:53;23.16;44.01
71514;DHT22;59335;46.652;21.272;2023-05-07T14:41:57;23.19;43.97
71514;DHT22;59335;46.652;21.272;2023-05-07T14:45:00;23.16;44.01
71514;DHT22;59335;46.652;21.272;2023-05-07T14:48:03;23.19;44.01
71514;DHT22;59335;46.652;21.272;2023-05-07T14:51:05;23.19;43.96
71514;DHT22;59335;46.652;21.272;2023-05-07T14:54:09;23.18;44.02
71514;DHT22;59335;46.652;21.272;2023-05-07T14:57:13;23.18;43.99
71514;DHT22;59335;46.652;21.272;2023-05-07T15:00:18;23.16;44.05
71514;DHT22;59335;46.652;21.272;2023-05-07T15:03:21;23.19;44.03
71514;DHT22;59335;46.652;21.272;2023-05-07T15:06:24;23.18;44.01
71514;DHT22;59335;46.652;21.272;2023-05-07T15:09:29;23.19;44.00
71514;DHT22;59335;46.652;21.272;2023-05-07T15:12:32;23.18;43.95
71514;DHT22;59335;46.652;21.272;2023-05-07T15:15:35;23.18;43.99
71514;DHT22;59335;46.652;21.272;2023-05-07T15:18:38;23.19;44.02
71514;DHT22;59335;46.652;21.272;2023-05-07T15:21:40;23.19;44.01
71514;DHT22;59335;46.652;21.272;2023-05-07T15:24:43;23.19;44.03
71514;DHT22;59335;46.652;21.272;2023-05-07T15:27:46;23.18;44.03
71514;DHT22;59335;46.652;21.272;2023-05-07T15:30:48;23.19;44.01
71514;DHT22;59335;46.652;21.272;2023-05-07T15:33:51;23.16;44.00
71514;DHT22;59335;46.652;21.272;2023-05-07T15:36:55;23.18;44.00
71514;DHT22;59335;46.652;21.272;2023-05-07T15:39:59;23.16;44.02
71514;DHT22;59335;46.652;21.272;2023-05-07T15:43:04;23.18;44.03
71514;DHT22;59335;46.652;21.272;2023-05-07T15:46:07;23.19;44.03
71514;DHT22;59335;46.652;21.272;2023-05-07T15:49:09;23.16;44.06
71514;DHT22;59335;46.652;21.272;2023-05-07T15:52:12;23.15;44.05
71514;DHT22;59335;46.652;21.272;2023-05-07T15:55:18;23.16;44.03
71514;DHT22;59335;46.652;21.272;2023-05-07T15:58:21;23.15;44.08
71514;DHT22;59335;46.652;21.272;2023-05-07T16:01:24;23.16;44.01
71514;DHT22;59335;46.652;21.272;2023-05-07T16:04:27;23.16;44.08
71514;DHT22;59335;46.652;21.272;2023-05-07T16:07:30;23.15;44.08
71514;DHT22;59335;46.652;21.272;2023-05-07T16:10:32;23.13;44.07
71514;DHT22;59335;46.652;21.272;2023-05-07T16:13:35;23.13;44.07
71514;DHT22;59335;46.652;21.272;2023-05-07T16:16:41;23.15;44.06
71514;DHT22;59335;46.652;21.272;2023-05-07T16:19:43;23.15;44.09
71514;DHT22;59335;46.652;21.272;2023-05-07T16:22:46;23.13;44.11
71514;DHT22;59335;46.652;21.272;2023-05-07T16:25:49;23.12;44.12
71514;DHT22;59335;46.652;21.272;2023-05-07T16:28:51;23.13;44.11
71514;DHT22;59335;46.652;21.272;2023-05-07T16:31:56;23.13;44.14
71514;DHT22;59335;46.652;21.272;2023-05-07T16:34:59;23.11;44.10
71514;DHT22;59335;46.652;21.272;2023-05-07T16:38:01;23.11;44.13
71514;DHT22;59335;46.652;21.272;2023-05-07T16:41:11;23.11;44.20
71514;DHT22;59335;46.652;21.272;2023-05-07T16:44:15;23.09;44.18
71514;DHT22;59335;46.652;21.272;2023-05-07T16:47:17;23.11;44.19
71514;DHT22;59335;46.652;21.272;2023-05-07T16:50:20;23.09;44.19
71514;DHT22;59335;46.652;21.272;2023-05-07T16:53:23;23.09;44.23
71514;DHT22;59335;46.652;21.272;2023-05-07T16:56:26;23.08;44.18
71514;DHT22;59335;46.652;21.272;2023-05-07T16:59:29;23.08;44.25
71514;DHT22;59335;46.652;21.272;2023-05-07T17:02:34;23.05;44.27
71514;DHT22;59335;46.652;21.272;2023-05-07T17:05:37;23.02;44.32
71514;DHT22;59335;46.652;21.272;2023-05-07T17:08:40;23.05;44.35
71514;DHT22;59335;46.652;21.272;2023-05-07T17:11:44;23.03;44.36
71514;DHT22;59335;46.652;21.272;2023-05-07T17:14:47;23.05;44.38
71514;DHT22;59335;46.652;21.272;2023-05-07T17:17:50;23.02;44.40
71514;DHT22;59335;46.652;21.272;2023-05-07T17:20:53;23.01;44.39
71514;DHT22;59335;46.652;21.272;2023-05-07T17:23:56;23.02;44.38
71514;DHT22;59335;46.652;21.272;2023-05-07T17:26:58;23.01;44.40
71514;DHT22;59335;46.652;21.272;2023-05-07T17:30:01;23.02;44.43
71514;DHT22;59335;46.652;21.272;2023-05-07T17:33:05;23.02;44.45
71514;DHT22;59335;46.652;21.272;2023-05-07T17:36:23;23.02;44.52
71514;DHT22;59335;46.652;21.272;2023-05-07T17:39:25;23.02;44.47
71514;DHT22;59335;46.652;21.272;2023-05-07T17:42:28;22.99;44.56
71514;DHT22;59335;46.652;21.272;2023-05-07T17:45:33;22.99;44.56
71514;DHT22;59335;46.652;21.272;2023-05-07T17:48:35;22.98;44.59
71514;DHT22;59335;46.652;21.272;2023-05-07T17:51:38;22.99;44.58
71514;DHT22;59335;46.652;21.272;2023-05-07T17:54:56;22.95;44.63
71514;DHT22;59335;46.652;21.272;2023-05-07T17:57:59;22.95;44.60
71514;DHT22;59335;46.652;21.272;2023-05-07T18:01:01;22.94;44.64
71514;DHT22;59335;46.652;21.272;2023-05-07T18:04:04;22.98;44.62
71514;DHT22;59335;46.652;21.272;2023-05-07T18:07:07;22.98;44.60
71514;DHT22;59335;46.652;21.272;2023-05-07T18:10:10;22.96;44.58
71514;DHT22;59335;46.652;21.272;2023-05-07T18:13:13;22.98;44.64
71514;DHT22;59335;46.652;21.272;2023-05-07T18:16:15;22.95;44.65
71514;DHT22;59335;46.652;21.272;2023-05-07T18:19:20;22.96;44.64
71514;DHT22;59335;46.652;21.272;2023-05-07T18:22:23;22.96;44.68
71514;DHT22;59335;46.652;21.272;2023-05-07T18:25:26;22.94;44.72
71514;DHT22;59335;46.652;21.272;2023-05-07T18:28:29;22.95;44.74
71514;DHT22;59335;46.652;21.272;2023-05-07T18:31:31;22.94;44.74
71514;DHT22;59335;46.652;21.272;2023-05-07T18:34:38;22.94;44.80
71514;DHT22;59335;46.652;21.272;2023-05-07T18:37:41;22.95;44.85
71514;DHT22;59335;46.652;21.272;2023-05-07T18:40:44;22.94;44.85
71514;DHT22;59335;46.652;21.272;2023-05-07T18:43:49;22.94;44.84
71514;DHT22;59335;46.652;21.272;2023-05-07T18:46:53;22.92;44.86
71514;DHT22;59335;46.652;21.272;2023-05-07T18:49:57;22.92;44.92
71514;DHT22;59335;46.652;21.272;2023-05-07T18:53:00;22.92;44.89
71514;DHT22;59335;46.652;21.272;2023-05-07T18:56:05;22.91;44.92
71514;DHT22;59335;46.652;21.272;2023-05-07T18:59:09;22.92;44.96
71514;DHT22;59335;46.652;21.272;2023-05-07T19:02:12;22.91;44.92
71514;DHT22;59335;46.652;21.272;2023-05-07T19:05:17;22.96;44.93
71514;DHT22;59335;46.652;21.272;2023-05-07T19:08:21;22.91;44.93
71514;DHT22;59335;46.652;21.272;2023-05-07T19:11:25;22.90;44.91